Time;durP1;ratioP1;P1;durP2;ratioP2;P2;SDS_P1;SDS_P2;PMS_P1;PMS_P2;Temp;Humidity;BMP_temperature;BMP_pressure;BME280_temperature;BME280_humidity;BME280_pressure;Samples;Min_cycle;Max_cycle;Signal;HPM_P1;HPM_P2
2021/11/10 00:01:53;;;;;;;23.17;11.60;;;;;;;1.14;100.00;102016.88;6157674;23;20179;-73
2021/11/10 00:04:21;;;;;;;24.00;12.00;;;;;;;1.20;100.00;102018.81;6159512;23;20477;-73
2021/11/10 00:06:48;;;;;;;24.63;12.30;;;;;;;1.17;100.00;102019.56;6158507;23;20205;-73
2021/11/10 00:09:15;;;;;;;27.37;13.63;;;;;;;1.20;100.00;102011.09;6148907;23;20855;-73
2021/11/10 00:11:41;;;;;;;23.47;12.30;;;;;;;1.22;100.00;102020.59;6159376;23;20550;-73
2021/11/10 00:14:08;;;;;;;25.83;13.63;;;;;;;1.11;100.00;102015.09;6158669;23;20246;-73
2021/11/10 00:16:35;;;;;;;21.00;12.57;;;;;;;1.16;100.00;102014.38;6158214;23;20197;-74
2021/11/10 00:19:02;;;;;;;22.23;12.70;;;;;;;1.25;100.00;102013.00;6149093;23;20190;-73
2021/11/10 00:21:29;;;;;;;25.13;13.13;;;;;;;1.14;100.00;102009.16;6158476;23;20630;-73
2021/11/10 00:23:56;;;;;;;25.07;12.77;;;;;;;1.21;100.00;102016.25;6158749;23;20257;-73
2021/11/10 00:26:23;;;;;;;25.83;13.17;;;;;;;1.10;100.00;102013.31;6158625;23;20528;-74
2021/11/10 00:28:50;;;;;;;24.57;12.47;;;;;;;1.24;100.00;102006.09;6159156;23;20185;-73
2021/11/10 00:31:18;;;;;;;30.63;12.60;;;;;;;1.26;100.00;102013.88;6159207;23;20500;-74
2021/11/10 00:33:47;;;;;;;24.77;12.80;;;;;;;1.35;100.00;102003.03;6122530;23;20291;-73
2021/11/10 00:36:14;;;;;;;26.87;13.00;;;;;;;1.34;100.00;102007.31;6122080;23;20207;-73
2021/11/10 00:38:41;;;;;;;24.73;12.77;;;;;;;1.26;100.00;102009.59;6158736;23;20182;-73
2021/11/10 00:41:08;;;;;;;23.87;12.47;;;;;;;1.35;100.00;102005.59;6158059;23;20691;-74
2021/11/10 00:43:35;;;;;;;25.53;11.93;;;;;;;1.30;100.00;102000.28;6122386;23;20417;-73
2021/11/10 00:46:02;;;;;;;21.53;11.53;;;;;;;1.32;100.00;101999.53;6122129;23;20292;-73
2021/11/10 00:48:28;;;;;;;22.67;12.27;;;;;;;1.24;100.00;101994.97;6158938;23;20204;-73
2021/11/10 00:50:57;;;;;;;18.13;11.67;;;;;;;0.98;100.00;102001.75;6159086;23;20261;-74
2021/11/10 00:53:24;;;;;;;28.60;12.40;;;;;;;0.97;100.00;101995.75;6122146;23;20203;-74
2021/11/10 00:55:51;;;;;;;21.70;11.20;;;;;;;0.98;100.00;101991.47;6122597;23;20529;-73
2021/11/10 00:58:18;;;;;;;20.10;11.30;;;;;;;0.95;100.00;102002.53;6122097;23;20568;-73
2021/11/10 01:00:44;;;;;;;20.13;11.07;;;;;;;0.91;100.00;101992.94;6158632;23;20529;-73
2021/11/10 01:03:11;;;;;;;20.97;11.80;;;;;;;0.88;100.00;101987.69;6122222;23;20266;-73
2021/11/10 01:05:39;;;;;;;19.03;9.73;;;;;;;0.83;100.00;101991.84;6122297;23;20199;-73
2021/11/10 01:08:08;;;;;;;17.80;9.93;;;;;;;0.89;100.00;101987.75;6122568;23;20172;-74
2021/11/10 01:10:36;;;;;;;19.43;10.33;;;;;;;0.79;100.00;101989.94;6149005;23;20269;-73
2021/11/10 01:13:03;;;;;;;19.77;9.80;;;;;;;0.68;100.00;101995.56;6158773;23;20194;-73
2021/11/10 01:15:29;;;;;;;15.10;9.10;;;;;;;0.66;100.00;101988.66;6122455;23;20204;-73
2021/11/10 01:17:56;;;;;;;18.50;9.43;;;;;;;0.67;100.00;101990.38;6158781;23;20187;-74
2021/11/10 01:20:24;;;;;;;20.60;9.80;;;;;;;0.63;100.00;101978.25;6122650;23;20504;-73
2021/11/10 01:22:51;;;;;;;19.47;9.87;;;;;;;0.40;100.00;101983.41;6122653;23;20182;-74
2021/11/10 01:25:19;;;;;;;17.67;10.20;;;;;;;0.46;100.00;101975.97;6122579;23;20210;-73
2021/11/10 01:27:46;;;;;;;18.13;9.57;;;;;;;0.43;100.00;101974.97;6122919;23;20173;-73
2021/11/10 01:30:13;;;;;;;16.00;9.33;;;;;;;0.43;100.00;101974.97;6159009;23;20175;-73
2021/11/10 01:32:43;;;;;;;19.87;10.30;;;;;;;0.34;100.00;101973.81;6122542;23;20240;-73
2021/11/10 01:35:10;;;;;;;15.60;9.60;;;;;;;0.26;100.00;101970.06;6122156;23;20200;-73
2021/11/10 01:37:36;;;;;;;20.20;9.97;;;;;;;0.42;100.00;101968.94;6158599;23;20192;-73
2021/11/10 01:40:04;;;;;;;16.83;10.00;;;;;;;0.34;100.00;101968.66;6122429;23;20176;-73
2021/11/10 01:42:33;;;;;;;15.13;9.40;;;;;;;0.26;100.00;101969.19;6123149;23;20173;-73
2021/11/10 01:45:00;;;;;;;18.27;9.27;;;;;;;0.25;100.00;101960.63;6122768;23;20204;-73
2021/11/10 01:47:30;;;;;;;17.00;9.13;;;;;;;0.20;100.00;101956.16;6122596;23;20176;-73
2021/11/10 01:50:00;;;;;;;17.23;9.40;;;;;;;0.13;100.00;101960.19;6122465;23;20212;-73
2021/11/10 01:52:27;;;;;;;17.37;9.47;;;;;;;0.14;100.00;101944.84;6122734;23;20177;-73
2021/11/10 01:54:55;;;;;;;21.30;10.83;;;;;;;0.14;100.00;101939.72;6122577;23;20640;-73
2021/11/10 01:57:25;;;;;;;18.00;9.40;;;;;;;0.05;100.00;101936.78;6123633;23;20187;-73
2021/11/10 02:00:08;;;;;;;18.27;9.63;;;;;;;0.13;100.00;101940.53;6124509;23;20290;-73
2021/11/10 02:02:46;;;;;;;21.80;10.13;;;;;;;-0.04;100.00;101944.13;6160977;23;20181;-73
2021/11/10 02:05:16;;;;;;;18.77;10.27;;;;;;;-0.15;100.00;101937.72;6124515;23;20204;-73
2021/11/10 02:07:44;;;;;;;16.90;10.03;;;;;;;-0.23;100.00;101938.31;6124710;23;20176;-73
2021/11/10 02:10:14;;;;;;;16.33;9.13;;;;;;;-0.14;100.00;101931.78;6161712;23;20263;-73
2021/11/10 02:12:41;;;;;;;21.03;10.77;;;;;;;-0.22;100.00;101934.06;6124015;23;20179;-73
2021/11/10 02:15:12;;;;;;;19.70;10.10;;;;;;;-0.27;100.00;101926.16;6124661;23;20280;-73
2021/11/10 02:17:38;;;;;;;19.00;10.07;;;;;;;-0.24;100.00;101925.44;6124845;23;20271;-73
2021/11/10 02:20:07;;;;;;;19.63;9.83;;;;;;;-0.17;100.00;101924.00;6124714;23;20484;-73
2021/11/10 02:22:38;;;;;;;20.93;11.17;;;;;;;-0.15;100.00;101919.78;6124263;23;20173;-73
2021/11/10 02:25:08;;;;;;;20.83;9.97;;;;;;;-0.17;100.00;101916.28;6160358;23;20227;-74
2021/11/10 02:27:35;;;;;;;18.50;10.23;;;;;;;-0.23;100.00;101917.81;6124059;23;20188;-73
2021/11/10 02:30:06;;;;;;;21.97;10.57;;;;;;;-0.20;100.00;101912.78;6124192;23;20638;-73
2021/11/10 02:32:33;;;;;;;17.37;10.90;;;;;;;-0.38;100.00;101914.63;6123545;23;20670;-73
2021/11/10 02:35:00;;;;;;;22.10;10.87;;;;;;;-0.34;100.00;101910.50;6124171;23;20201;-73
2021/11/10 02:37:26;;;;;;;20.67;10.67;;;;;;;-0.38;100.00;101909.50;6123817;23;20185;-73
2021/11/10 02:39:54;;;;;;;21.17;10.57;;;;;;;-0.43;100.00;101909.31;6159993;23;20176;-74
2021/11/10 02:42:22;;;;;;;15.97;9.37;;;;;;;-0.43;100.00;101901.63;6124346;23;20181;-73
2021/11/10 02:44:50;;;;;;;18.43;9.83;;;;;;;-0.57;100.00;101902.78;6159955;23;20632;-73
2021/11/10 02:47:17;;;;;;;22.87;10.50;;;;;;;-0.43;100.00;101898.19;6123627;23;20574;-73
2021/11/10 02:49:44;;;;;;;18.47;9.43;;;;;;;-0.53;100.00;101896.94;6160646;23;20184;-73
2021/11/10 02:52:13;;;;;;;15.80;9.60;;;;;;;-0.46;100.00;101900.63;6123595;23;20181;-74
2021/11/10 02:54:42;;;;;;;16.30;9.73;;;;;;;-0.32;100.00;101894.34;6159073;23;20189;-73
2021/11/10 02:57:10;;;;;;;19.03;10.43;;;;;;;-0.25;100.00;101890.34;6122754;23;20264;-73
2021/11/10 02:59:37;;;;;;;18.03;9.57;;;;;;;-0.38;100.00;101881.31;6158721;23;20203;-73
2021/11/10 03:02:06;;;;;;;19.90;10.33;;;;;;;-0.50;100.00;101884.28;6122743;23;20181;-73
2021/11/10 03:04:36;;;;;;;20.50;10.10;;;;;;;-0.51;100.00;101881.66;6122600;23;20474;-73
2021/11/10 03:07:04;;;;;;;17.83;10.23;;;;;;;-0.50;100.00;101888.53;6122459;23;20181;-73
2021/11/10 03:09:34;;;;;;;20.27;9.77;;;;;;;-0.40;100.00;101888.09;6121888;23;20612;-73
2021/11/10 03:12:11;;;;;;;19.00;9.60;;;;;;;-0.44;100.00;101874.28;6124073;23;20512;-75
2021/11/10 03:14:39;;;;;;;17.80;10.10;;;;;;;-0.47;100.00;101883.53;6147957;23;20235;-73
2021/11/10 03:17:12;;;;;;;15.97;9.50;;;;;;;-0.29;100.00;101879.09;6159708;23;20173;-73
2021/11/10 03:19:39;;;;;;;13.77;8.70;;;;;;;-0.32;100.00;101875.53;6123102;23;20191;-73
2021/11/10 03:22:08;;;;;;;14.47;9.77;;;;;;;-0.44;100.00;101863.13;6122298;23;20175;-73
2021/11/10 03:24:36;;;;;;;16.80;9.73;;;;;;;-0.55;100.00;101857.59;6122083;23;20173;-73
2021/11/10 03:27:05;;;;;;;17.77;9.83;;;;;;;-0.59;100.00;101855.72;6122959;23;20621;-73
2021/11/10 03:29:34;;;;;;;20.73;10.60;;;;;;;-0.69;100.00;101861.31;6122533;23;20180;-73
2021/11/10 03:32:04;;;;;;;21.60;10.53;;;;;;;-0.66;100.00;101861.44;6122824;23;20573;-73
2021/11/10 03:34:33;;;;;;;19.63;10.27;;;;;;;-0.61;100.00;101860.78;6122292;23;20197;-73
2021/11/10 03:37:00;;;;;;;19.80;10.43;;;;;;;-0.50;100.00;101857.78;6122138;23;20211;-73
2021/11/10 03:39:27;;;;;;;17.17;10.07;;;;;;;-0.43;100.00;101854.63;6122477;23;20271;-73
2021/11/10 03:41:56;;;;;;;17.83;9.63;;;;;;;-0.58;100.00;101848.13;6121713;23;20687;-73
2021/11/10 03:44:23;;;;;;;19.40;9.97;;;;;;;-0.55;100.00;101851.59;6146328;23;20181;-73
2021/11/10 03:46:51;;;;;;;20.40;10.07;;;;;;;-0.55;100.00;101849.91;6122632;23;20172;-73
2021/11/10 03:49:19;;;;;;;18.03;10.30;;;;;;;-0.59;100.00;101840.38;6159106;23;20176;-73
2021/11/10 03:51:46;;;;;;;17.23;9.70;;;;;;;-0.67;100.00;101841.75;6122299;23;20176;-73
2021/11/10 03:54:15;;;;;;;18.27;9.97;;;;;;;-0.74;100.00;101843.19;6122072;23;20572;-73
2021/11/10 03:56:42;;;;;;;17.27;10.03;;;;;;;-0.80;100.00;101843.81;6122261;23;20221;-73
2021/11/10 03:59:09;;;;;;;18.77;9.90;;;;;;;-0.75;100.00;101840.59;6122074;23;20176;-73
2021/11/10 04:01:36;;;;;;;16.07;9.60;;;;;;;-0.87;100.00;101843.53;6121737;23;20208;-73
2021/11/10 04:04:05;;;;;;;18.07;10.57;;;;;;;-0.82;100.00;101852.25;6122732;23;20172;-73
2021/11/10 04:06:32;;;;;;;18.23;10.13;;;;;;;-0.99;100.00;101844.75;6158773;23;20204;-73
2021/11/10 04:08:59;;;;;;;21.67;11.67;;;;;;;-0.98;100.00;101843.09;6122886;23;20691;-73
2021/11/10 04:11:26;;;;;;;20.73;10.63;;;;;;;-0.78;100.00;101834.50;6159359;23;20259;-73
2021/11/10 04:13:53;;;;;;;19.20;9.93;;;;;;;-0.69;100.00;101828.88;6123096;23;20814;-73
2021/11/10 04:16:23;;;;;;;18.60;10.17;;;;;;;-0.87;100.00;101833.28;6122416;23;20656;-73
2021/11/10 04:18:55;;;;;;;16.60;9.43;;;;;;;-0.97;100.00;101834.59;6122432;23;20651;-73
2021/11/10 04:21:26;;;;;;;19.10;10.17;;;;;;;-0.94;100.00;101833.84;6122372;23;20219;-73
2021/11/10 04:23:56;;;;;;;19.23;10.33;;;;;;;-1.17;100.00;101826.97;6122940;23;20183;-73
2021/11/10 04:26:27;;;;;;;22.03;10.30;;;;;;;-1.11;100.00;101834.03;6122812;23;20544;-73
2021/11/10 04:28:57;;;;;;;26.53;10.77;;;;;;;-1.03;100.00;101830.09;6122790;23;20219;-73
2021/11/10 04:31:24;;;;;;;17.43;10.20;;;;;;;-0.88;100.00;101823.84;6122786;23;20181;-73
2021/11/10 04:33:52;;;;;;;19.67;10.37;;;;;;;-0.87;100.00;101829.03;6122394;23;20193;-73
2021/11/10 04:36:21;;;;;;;20.20;10.50;;;;;;;-1.15;100.00;101827.03;6121994;23;20242;-73
2021/11/10 04:38:56;;;;;;;17.17;10.17;;;;;;;-1.15;100.00;101829.59;6123018;23;20543;-73
2021/11/10 04:41:23;;;;;;;20.90;10.03;;;;;;;-1.07;100.00;101830.78;6122753;23;20191;-73
2021/11/10 04:43:51;;;;;;;22.50;11.07;;;;;;;-1.04;100.00;101823.25;6122519;23;20180;-73
2021/11/10 04:46:22;;;;;;;18.00;10.07;;;;;;;-1.00;100.00;101826.81;6122085;23;20207;-73
2021/11/10 04:48:49;;;;;;;19.50;9.93;;;;;;;-1.06;100.00;101822.28;6122551;23;20181;-73
2021/11/10 04:51:17;;;;;;;21.57;10.93;;;;;;;-1.06;100.00;101826.53;6148783;23;20180;-73
2021/11/10 04:53:46;;;;;;;19.37;11.23;;;;;;;-1.15;100.00;101829.59;6159003;23;20251;-73
2021/11/10 04:56:15;;;;;;;22.13;11.47;;;;;;;-1.18;100.00;101825.25;6122502;23;20192;-73
2021/11/10 04:58:43;;;;;;;20.17;11.37;;;;;;;-1.38;100.00;101821.84;6122867;23;20183;-73
2021/11/10 05:01:21;;;;;;;22.87;12.27;;;;;;;-1.50;100.00;101825.56;6122327;23;20177;-73
2021/11/10 05:03:48;;;;;;;26.30;12.97;;;;;;;-1.46;100.00;101827.44;6159714;23;20169;-73
2021/11/10 05:06:16;;;;;;;21.20;11.67;;;;;;;-1.34;100.00;101826.28;6122312;23;20209;-73
2021/11/10 05:08:43;;;;;;;24.87;12.03;;;;;;;-1.26;100.00;101818.91;6122826;23;20581;-73
2021/11/10 05:11:10;;;;;;;24.77;13.70;;;;;;;-1.27;100.00;101816.28;6122678;23;20621;-73
2021/11/10 05:13:37;;;;;;;27.00;13.00;;;;;;;-1.44;100.00;101828.38;6122710;23;20181;-73
2021/11/10 05:16:05;;;;;;;25.77;13.33;;;;;;;-1.42;100.00;101832.75;6122690;23;20231;-73
2021/11/10 05:18:32;;;;;;;23.50;13.63;;;;;;;-1.48;100.00;101827.38;6122446;23;20184;-73
2021/11/10 05:20:59;;;;;;;28.23;13.90;;;;;;;-1.44;100.00;101829.28;6122039;23;20181;-73
2021/11/10 05:23:26;;;;;;;23.67;13.33;;;;;;;-1.46;100.00;101830.00;6122741;23;20227;-73
2021/11/10 05:25:52;;;;;;;25.43;13.93;;;;;;;-1.42;100.00;101837.00;6158950;23;20192;-73
2021/11/10 05:28:19;;;;;;;24.53;14.37;;;;;;;-1.46;100.00;101835.13;6158699;23;20204;-73
2021/11/10 05:30:47;;;;;;;23.33;12.20;;;;;;;-1.30;100.00;101831.50;6158033;23;20181;-73
2021/11/10 05:33:14;;;;;;;26.43;13.93;;;;;;;-1.25;100.00;101830.91;6160466;23;20187;-73
2021/11/10 05:35:41;;;;;;;26.57;12.83;;;;;;;-1.48;100.00;101840.16;6160593;23;20300;-73
2021/11/10 05:38:08;;;;;;;23.10;11.97;;;;;;;-1.49;100.00;101835.00;6160583;23;20185;-73
2021/11/10 05:40:36;;;;;;;21.27;11.57;;;;;;;-1.50;100.00;101838.38;6159975;23;20637;-73
2021/11/10 05:43:03;;;;;;;20.47;11.43;;;;;;;-1.50;100.00;101836.66;6160571;23;20676;-73
2021/11/10 05:45:29;;;;;;;20.87;11.00;;;;;;;-1.50;100.00;101833.25;6156566;23;20203;-73
2021/11/10 05:47:57;;;;;;;26.20;11.43;;;;;;;-1.62;100.00;101843.81;6157142;23;20774;-73
2021/11/10 05:50:24;;;;;;;22.60;10.73;;;;;;;-1.61;100.00;101843.03;6150260;23;20202;-73
2021/11/10 05:52:50;;;;;;;21.27;10.13;;;;;;;-1.59;100.00;101836.28;6159978;23;20272;-73
2021/11/10 05:55:17;;;;;;;17.67;10.37;;;;;;;-1.57;100.00;101834.66;6159809;23;20729;-73
2021/11/10 05:57:47;;;;;;;21.67;10.50;;;;;;;-1.68;100.00;101839.31;6161139;23;20187;-73
2021/11/10 06:00:14;;;;;;;19.10;10.97;;;;;;;-1.68;100.00;101836.75;6160085;23;20200;-73
2021/11/10 06:02:42;;;;;;;17.37;10.20;;;;;;;-1.56;100.00;101823.63;6159835;23;20211;-73
2021/11/10 06:05:11;;;;;;;18.53;10.13;;;;;;;-1.55;100.00;101821.16;6159406;23;20390;-73
2021/11/10 06:07:37;;;;;;;25.93;11.67;;;;;;;-1.56;100.00;101816.81;6159850;23;20415;-73
2021/11/10 06:10:05;;;;;;;22.97;11.77;;;;;;;-1.45;100.00;101814.72;6158504;23;20193;-73
2021/11/10 06:12:32;;;;;;;25.07;13.03;;;;;;;-1.31;100.00;101814.44;6148529;23;21090;-73
2021/11/10 06:14:58;;;;;;;19.40;11.53;;;;;;;-1.39;100.00;101826.88;6122322;23;20221;-73
2021/11/10 06:17:25;;;;;;;26.67;12.63;;;;;;;-1.34;100.00;101822.84;6160430;23;20499;-73
2021/11/10 06:19:51;;;;;;;22.20;11.60;;;;;;;-1.25;100.00;101817.22;6160210;23;20414;-73
2021/11/10 06:22:19;;;;;;;25.47;13.53;;;;;;;-1.39;100.00;101830.34;6160341;23;20177;-73
2021/11/10 06:24:45;;;;;;;21.57;12.33;;;;;;;-1.49;100.00;101828.19;6160272;23;20222;-73
2021/11/10 06:27:12;;;;;;;22.20;13.10;;;;;;;-1.59;100.00;101833.72;6123039;23;20679;-73
2021/11/10 06:29:38;;;;;;;27.63;13.80;;;;;;;-1.56;100.00;101838.97;6160227;23;20407;-74
2021/11/10 06:32:05;;;;;;;19.77;12.03;;;;;;;-1.47;100.00;101839.38;6160582;23;20183;-73
2021/11/10 06:34:32;;;;;;;24.57;13.37;;;;;;;-1.52;100.00;101841.72;6159739;23;20436;-74
2021/11/10 06:36:58;;;;;;;29.47;13.87;;;;;;;-1.49;100.00;101835.00;6160174;23;20191;-74
2021/11/10 06:39:26;;;;;;;24.43;13.53;;;;;;;-1.38;100.00;101837.19;6159776;23;20505;-73
2021/11/10 06:41:53;;;;;;;23.17;12.90;;;;;;;-1.40;100.00;101832.84;6160161;23;20201;-73
2021/11/10 06:44:19;;;;;;;25.20;12.60;;;;;;;-1.36;100.00;101834.69;6160139;23;20183;-73
2021/11/10 06:46:46;;;;;;;22.90;12.27;;;;;;;-1.23;100.00;101830.97;6159910;23;20223;-74
2021/11/10 06:49:12;;;;;;;23.10;12.70;;;;;;;-1.23;100.00;101842.09;6160019;23;20417;-73
2021/11/10 06:51:39;;;;;;;32.13;15.20;;;;;;;-1.20;100.00;101837.06;6159994;23;20169;-73
2021/11/10 06:54:06;;;;;;;29.03;15.63;;;;;;;-1.20;100.00;101839.63;6151012;23;20181;-73
2021/11/10 06:56:35;;;;;;;29.53;15.87;;;;;;;-1.20;100.00;101836.22;6149584;23;20199;-73
2021/11/10 06:59:03;;;;;;;30.37;16.63;;;;;;;-1.17;100.00;101841.47;6149427;23;20688;-74
2021/11/10 07:01:29;;;;;;;30.73;15.73;;;;;;;-1.19;100.00;101843.09;6159342;23;20177;-74
2021/11/10 07:03:56;;;;;;;30.37;15.90;;;;;;;-1.25;100.00;101832.59;6149658;23;20863;-73
2021/11/10 07:06:23;;;;;;;31.30;15.20;;;;;;;-1.10;100.00;101840.91;6149469;23;20207;-73
2021/11/10 07:08:49;;;;;;;30.13;16.97;;;;;;;-1.08;100.00;101840.97;6148451;23;20508;-73
2021/11/10 07:11:16;;;;;;;29.13;16.47;;;;;;;-1.04;100.00;101843.72;6159656;23;20485;-73
2021/11/10 07:13:44;;;;;;;27.87;15.77;;;;;;;-1.09;100.00;101836.66;6159020;23;20687;-73
2021/11/10 07:16:10;;;;;;;31.57;15.93;;;;;;;-1.12;100.00;101839.09;6158690;23;20212;-73
2021/11/10 07:18:37;;;;;;;35.70;16.17;;;;;;;-1.02;100.00;101847.22;6158908;23;20181;-73
2021/11/10 07:21:03;;;;;;;28.23;14.57;;;;;;;-0.78;100.00;101846.44;6158793;23;20275;-74
2021/11/10 07:23:29;;;;;;;30.87;15.03;;;;;;;-0.87;100.00;101844.38;6159203;23;20508;-73
2021/11/10 07:25:56;;;;;;;32.83;16.57;;;;;;;-0.91;100.00;101845.09;6158987;23;20193;-74
2021/11/10 07:28:22;;;;;;;38.77;17.80;;;;;;;-0.77;100.00;101843.09;6158990;23;20184;-73
2021/11/10 07:30:50;;;;;;;68.10;25.50;;;;;;;-0.66;100.00;101833.25;6159254;23;20176;-73
2021/11/10 07:33:17;;;;;;;65.77;24.67;;;;;;;-0.61;100.00;101840.28;6122328;23;20573;-74
2021/11/10 07:35:43;;;;;;;63.23;23.83;;;;;;;-0.50;100.00;101833.03;6149968;23;20208;-73
2021/11/10 07:38:10;;;;;;;66.20;25.57;;;;;;;-0.48;100.00;101830.53;6159137;23;20708;-73
2021/11/10 07:40:38;;;;;;;54.67;22.00;;;;;;;-0.38;100.00;101825.81;6159193;23;20191;-72
2021/11/10 07:43:04;;;;;;;37.43;16.97;;;;;;;-0.27;100.00;101826.19;6160087;23;20481;-72
2021/11/10 07:45:35;;;;;;;40.27;16.50;;;;;;;-0.24;100.00;101823.75;6159507;23;20196;-73
2021/11/10 07:48:05;;;;;;;32.53;15.43;;;;;;;-0.18;100.00;101817.97;6159922;23;20181;-73
2021/11/10 07:50:32;;;;;;;29.70;13.87;;;;;;;-0.02;100.00;101812.63;6159500;23;20263;-73
2021/11/10 07:53:00;;;;;;;30.73;14.33;;;;;;;0.09;100.00;101814.66;6159790;23;20200;-72
2021/11/10 07:55:27;;;;;;;33.23;13.33;;;;;;;0.18;100.00;101815.88;6158851;23;20204;-72
2021/11/10 07:57:56;;;;;;;33.03;14.00;;;;;;;0.30;100.00;101810.31;6159424;23;20177;-72
2021/11/10 08:00:24;;;;;;;37.20;15.07;;;;;;;0.46;100.00;101816.84;6149391;23;20181;-73
2021/11/10 08:02:50;;;;;;;33.63;15.57;;;;;;;0.56;100.00;101826.63;6159399;23;20180;-72
2021/11/10 08:05:19;;;;;;;36.17;15.10;;;;;;;0.66;100.00;101821.78;6159554;23;20203;-72
2021/11/10 08:07:45;;;;;;;33.67;15.80;;;;;;;0.77;100.00;101828.13;6159374;23;20227;-73
2021/11/10 08:10:13;;;;;;;39.23;16.67;;;;;;;0.92;100.00;101832.91;6149552;23;20191;-72
2021/11/10 08:12:41;;;;;;;57.00;18.30;;;;;;;1.07;100.00;101838.56;6159267;23;20176;-72
2021/11/10 08:15:10;;;;;;;46.70;18.53;;;;;;;1.13;100.00;101843.03;6158692;23;20858;-73
2021/11/10 08:17:37;;;;;;;47.30;19.07;;;;;;;1.29;100.00;101844.38;6158992;23;20675;-72
2021/11/10 08:20:04;;;;;;;49.93;17.67;;;;;;;1.38;100.00;101847.22;6158499;23;20173;-72
2021/11/10 08:22:32;;;;;;;44.20;16.53;;;;;;;1.46;100.00;101845.78;6158578;23;20172;-72
2021/11/10 08:24:59;;;;;;;47.07;17.43;;;;;;;1.54;100.00;101848.56;6148726;23;20204;-72
2021/11/10 08:27:26;;;;;;;44.10;17.60;;;;;;;1.63;100.00;101845.41;6148752;23;20272;-72
2021/11/10 08:29:52;;;;;;;56.33;20.50;;;;;;;1.69;100.00;101851.59;6158626;23;20183;-72
2021/11/10 08:32:19;;;;;;;45.67;19.07;;;;;;;1.77;100.00;101846.69;6148918;23;20183;-72
2021/11/10 08:34:45;;;;;;;47.67;18.10;;;;;;;1.85;100.00;101852.06;6158270;23;20281;-72
2021/11/10 08:37:12;;;;;;;45.07;18.87;;;;;;;1.96;100.00;101839.50;6158410;23;20193;-72
2021/11/10 08:39:40;;;;;;;48.67;20.53;;;;;;;2.06;100.00;101849.25;6158136;23;20178;-72
2021/11/10 08:42:09;;;;;;;56.90;25.43;;;;;;;2.14;100.00;101840.03;6157862;23;20185;-73
2021/11/10 08:44:37;;;;;;;53.23;19.47;;;;;;;2.23;100.00;101837.72;6157836;23;20173;-73
2021/11/10 08:47:04;;;;;;;45.03;20.23;;;;;;;2.33;100.00;101833.69;6148336;23;20702;-72
2021/11/10 08:49:32;;;;;;;58.37;22.40;;;;;;;2.43;100.00;101832.25;6158040;23;20183;-72
2021/11/10 08:51:59;;;;;;;55.33;20.83;;;;;;;2.54;100.00;101825.66;6158101;23;20227;-72
2021/11/10 08:54:25;;;;;;;62.10;21.23;;;;;;;2.64;100.00;101830.22;6157965;23;20173;-73
2021/11/10 08:56:53;;;;;;;62.17;21.47;;;;;;;2.73;100.00;101824.44;6157869;23;20250;-72
2021/11/10 08:59:20;;;;;;;62.27;22.57;;;;;;;2.82;100.00;101831.50;6157657;23;20176;-72
2021/11/10 09:01:48;;;;;;;67.03;22.47;;;;;;;2.88;100.00;101835.94;6157690;23;20207;-72
2021/11/10 09:04:15;;;;;;;55.87;20.30;;;;;;;2.96;100.00;101834.44;6157451;23;20180;-72
2021/11/10 09:06:42;;;;;;;60.50;21.20;;;;;;;3.05;100.00;101829.50;6158285;23;20197;-72
2021/11/10 09:09:08;;;;;;;70.77;22.67;;;;;;;3.12;100.00;101827.94;6159734;23;20177;-73
2021/11/10 09:11:34;;;;;;;56.10;22.13;;;;;;;3.17;100.00;101823.78;6159643;23;20630;-72
2021/11/10 09:14:02;;;;;;;56.13;19.50;;;;;;;3.23;100.00;101827.34;6159475;23;20169;-72
2021/11/10 09:16:28;;;;;;;52.57;19.23;;;;;;;3.25;100.00;101818.78;6159534;23;20763;-72
2021/11/10 09:18:55;;;;;;;55.00;20.53;;;;;;;3.28;100.00;101811.13;6159421;23;20179;-72
2021/11/10 09:21:21;;;;;;;58.87;19.03;;;;;;;3.31;100.00;101811.22;6159227;23;20267;-73
2021/11/10 09:23:48;;;;;;;55.23;19.43;;;;;;;3.37;100.00;101814.78;6159007;23;20183;-73
2021/11/10 09:26:15;;;;;;;59.50;20.20;;;;;;;3.41;100.00;101800.25;6159251;23;20200;-72
2021/11/10 09:28:42;;;;;;;60.77;21.27;;;;;;;3.49;100.00;101806.44;6159422;23;20653;-73
2021/11/10 09:31:10;;;;;;;58.97;20.63;;;;;;;3.58;100.00;101805.78;6159475;23;20204;-72
2021/11/10 09:33:40;;;;;;;58.40;20.77;;;;;;;3.67;100.00;101810.25;6158812;23;20173;-73
2021/11/10 09:36:08;;;;;;;54.37;20.10;;;;;;;3.77;100.00;101802.75;6148977;23;20196;-73
2021/11/10 09:38:35;;;;;;;65.97;23.27;;;;;;;3.89;100.00;101811.59;6159133;23;20210;-72
2021/11/10 09:41:02;;;;;;;72.83;23.90;;;;;;;3.97;100.00;101808.31;6158969;23;20199;-72
2021/11/10 09:43:33;;;;;;;75.30;25.17;;;;;;;4.05;100.00;101802.44;6159329;23;20260;-73
2021/11/10 09:46:00;;;;;;;68.37;25.07;;;;;;;4.18;100.00;101801.81;6158673;23;20692;-72
2021/11/10 09:48:28;;;;;;;70.40;25.20;;;;;;;4.27;100.00;101799.41;6159030;23;20208;-73
2021/11/10 09:50:55;;;;;;;86.87;26.93;;;;;;;4.31;100.00;101798.63;6158875;23;20642;-72
2021/11/10 09:53:22;;;;;;;84.67;28.17;;;;;;;4.36;100.00;101797.00;6158683;23;20185;-73
2021/11/10 09:55:50;;;;;;;84.60;31.27;;;;;;;4.38;100.00;101793.56;6158129;23;20287;-73
2021/11/10 09:58:17;;;;;;;83.87;29.87;;;;;;;4.45;100.00;101787.66;6158573;23;20684;-72
2021/11/10 10:00:48;;;;;;;83.80;29.77;;;;;;;4.51;100.00;101785.22;6158481;23;20185;-73
2021/11/10 10:03:16;;;;;;;87.87;30.13;;;;;;;4.54;100.00;101791.28;6158421;23;20937;-72
2021/11/10 10:05:45;;;;;;;79.63;28.73;;;;;;;4.59;100.00;101778.47;6159082;23;20437;-72
2021/11/10 10:08:12;;;;;;;89.63;30.03;;;;;;;4.61;100.00;101781.94;6159051;23;20189;-72
2021/11/10 10:10:39;;;;;;;85.70;30.97;;;;;;;4.64;100.00;101775.94;6158807;23;20270;-72
2021/11/10 10:13:06;;;;;;;82.57;29.87;;;;;;;4.63;100.00;101775.09;6158551;23;20205;-72
2021/11/10 10:15:35;;;;;;;78.23;30.00;;;;;;;4.65;100.00;101783.72;6158250;23;20509;-73
2021/11/10 10:18:03;;;;;;;86.27;29.67;;;;;;;4.73;100.00;101782.16;6158573;23;20215;-73
2021/11/10 10:20:32;;;;;;;83.37;29.43;;;;;;;4.74;100.00;101783.00;6158065;23;20176;-72
2021/11/10 10:23:03;;;;;;;84.63;29.60;;;;;;;4.73;100.00;101778.66;6158746;23;20280;-73
2021/11/10 10:25:38;;;;;;;73.43;28.00;;;;;;;4.78;100.00;101786.50;6158455;23;20699;-73
2021/11/10 10:28:06;;;;;;;81.27;29.87;;;;;;;4.84;100.00;101781.47;6158758;23;20263;-72
2021/11/10 10:30:35;;;;;;;80.27;29.00;;;;;;;4.84;100.00;101791.78;6157745;23;20177;-73
2021/11/10 10:33:08;;;;;;;80.30;30.03;;;;;;;4.86;100.00;101782.34;6148159;23;20195;-72
2021/11/10 10:35:39;;;;;;;76.63;29.83;;;;;;;4.91;100.00;101776.41;6157913;23;20199;-73
2021/11/10 10:38:09;;;;;;;83.37;29.60;;;;;;;4.97;100.00;101772.16;6158119;23;20212;-72
2021/11/10 10:40:39;;;;;;;82.70;30.33;;;;;;;5.06;100.00;101767.13;6157807;23;20183;-73
2021/11/10 10:43:05;;;;;;;79.23;29.57;;;;;;;5.14;100.00;101778.47;6157880;23;20622;-73
2021/11/10 10:45:38;;;;;;;78.67;31.03;;;;;;;5.21;100.00;101775.13;6157782;23;20210;-72
2021/11/10 10:48:07;;;;;;;80.43;30.40;;;;;;;5.28;100.00;101774.34;6157835;23;20176;-73
2021/11/10 10:50:37;;;;;;;78.40;29.87;;;;;;;5.36;100.00;101769.28;6147885;23;20191;-72
2021/11/10 10:53:03;;;;;;;81.97;30.77;;;;;;;5.39;100.00;101764.16;6158075;23;20556;-73
2021/11/10 10:55:33;;;;;;;80.53;30.07;;;;;;;5.45;100.00;101765.94;6157394;23;20659;-72
2021/11/10 10:58:00;;;;;;;74.43;30.47;;;;;;;5.52;100.00;101760.00;6157982;23;20181;-73
2021/11/10 11:00:30;;;;;;;74.53;30.00;;;;;;;5.58;100.00;101759.22;6158274;23;20175;-73
2021/11/10 11:02:57;;;;;;;73.97;29.93;;;;;;;5.64;100.00;101754.13;6157915;23;20666;-72
2021/11/10 11:05:38;;;;;;;75.37;30.57;;;;;;;5.72;100.00;101751.63;6156566;23;20211;-73
2021/11/10 11:08:26;;;;;;;77.70;29.07;;;;;;;5.79;100.00;101748.28;6157802;23;20496;-73
2021/11/10 11:10:54;;;;;;;83.20;34.77;;;;;;;5.85;100.00;101745.75;6157752;23;20187;-72